sensor_id;sensor_type;location;lat;lon;timestamp;P1;durP1;ratioP1;P2;durP2;ratioP2
57343;SDS011;43180;50.974;18.172;2023-08-21T00:00:30;10.70;;;6.80;;
57343;SDS011;43180;50.974;18.172;2023-08-21T00:10:16;10.40;;;6.40;;
57343;SDS011;43180;50.974;18.172;2023-08-21T00:20:01;23.20;;;9.30;;
57343;SDS011;43180;50.974;18.172;2023-08-21T00:29:44;9.00;;;5.70;;
57343;SDS011;43180;50.974;18.172;2023-08-21T00:39:28;22.20;;;10.80;;
57343;SDS011;43180;50.974;18.172;2023-08-21T00:49:11;2.20;;;1.70;;
57343;SDS011;43180;50.974;18.172;2023-08-21T00:58:54;15.30;;;11.20;;
57343;SDS011;43180;50.974;18.172;2023-08-21T01:19:03;15.80;;;11.50;;
57343;SDS011;43180;50.974;18.172;2023-08-21T01:28:46;12.70;;;9.00;;
57343;SDS011;43180;50.974;18.172;2023-08-21T01:38:52;14.80;;;10.60;;
57343;SDS011;43180;50.974;18.172;2023-08-21T01:48:34;16.00;;;10.20;;
57343;SDS011;43180;50.974;18.172;2023-08-21T01:58:17;16.40;;;8.80;;
57343;SDS011;43180;50.974;18.172;2023-08-21T02:08:06;14.80;;;10.00;;
57343;SDS011;43180;50.974;18.172;2023-08-21T02:17:48;24.70;;;11.10;;
57343;SDS011;43180;50.974;18.172;2023-08-21T02:27:32;17.20;;;10.00;;
57343;SDS011;43180;50.974;18.172;2023-08-21T02:37:14;15.00;;;11.30;;
57343;SDS011;43180;50.974;18.172;2023-08-21T02:46:56;16.80;;;11.50;;
57343;SDS011;43180;50.974;18.172;2023-08-21T02:56:39;15.60;;;12.20;;
57343;SDS011;43180;50.974;18.172;2023-08-21T03:06:21;9.90;;;7.30;;
57343;SDS011;43180;50.974;18.172;2023-08-21T03:16:04;12.10;;;9.20;;
57343;SDS011;43180;50.974;18.172;2023-08-21T03:25:47;19.40;;;10.30;;
57343;SDS011;43180;50.974;18.172;2023-08-21T03:35:33;17.80;;;12.80;;
57343;SDS011;43180;50.974;18.172;2023-08-21T03:45:17;21.50;;;14.30;;
57343;SDS011;43180;50.974;18.172;2023-08-21T03:55:00;25.70;;;19.70;;
57343;SDS011;43180;50.974;18.172;2023-08-21T04:04:41;12.00;;;8.70;;
57343;SDS011;43180;50.974;18.172;2023-08-21T04:14:24;20.10;;;14.70;;
57343;SDS011;43180;50.974;18.172;2023-08-21T04:24:06;23.10;;;15.60;;
57343;SDS011;43180;50.974;18.172;2023-08-21T04:33:49;15.10;;;9.10;;
57343;SDS011;43180;50.974;18.172;2023-08-21T04:43:33;18.40;;;13.90;;
57343;SDS011;43180;50.974;18.172;2023-08-21T04:53:15;15.00;;;10.20;;
57343;SDS011;43180;50.974;18.172;2023-08-21T05:02:58;17.90;;;13.30;;
57343;SDS011;43180;50.974;18.172;2023-08-21T05:12:41;18.30;;;13.30;;
57343;SDS011;43180;50.974;18.172;2023-08-21T05:22:23;21.20;;;14.30;;
57343;SDS011;43180;50.974;18.172;2023-08-21T05:32:05;4.90;;;3.80;;
57343;SDS011;43180;50.974;18.172;2023-08-21T05:41:47;14.60;;;11.20;;
57343;SDS011;43180;50.974;18.172;2023-08-21T05:51:30;19.00;;;11.30;;
57343;SDS011;43180;50.974;18.172;2023-08-21T06:01:13;15.10;;;9.50;;
57343;SDS011;43180;50.974;18.172;2023-08-21T06:10:55;9.20;;;6.50;;
57343;SDS011;43180;50.974;18.172;2023-08-21T06:20:40;6.50;;;4.60;;
57343;SDS011;43180;50.974;18.172;2023-08-21T06:30:24;11.40;;;6.20;;
57343;SDS011;43180;50.974;18.172;2023-08-21T06:40:10;9.30;;;5.10;;
57343;SDS011;43180;50.974;18.172;2023-08-21T06:49:55;12.10;;;6.20;;
57343;SDS011;43180;50.974;18.172;2023-08-21T06:59:37;8.90;;;6.90;;
57343;SDS011;43180;50.974;18.172;2023-08-21T07:09:20;7.80;;;5.30;;
57343;SDS011;43180;50.974;18.172;2023-08-21T07:19:05;6.40;;;5.50;;
57343;SDS011;43180;50.974;18.172;2023-08-21T07:28:47;7.90;;;5.40;;
57343;SDS011;43180;50.974;18.172;2023-08-21T07:38:31;8.70;;;4.70;;
57343;SDS011;43180;50.974;18.172;2023-08-21T07:48:28;11.20;;;4.60;;
57343;SDS011;43180;50.974;18.172;2023-08-21T07:58:11;4.20;;;3.50;;
57343;SDS011;43180;50.974;18.172;2023-08-21T08:07:57;7.90;;;4.00;;
57343;SDS011;43180;50.974;18.172;2023-08-21T08:17:40;3.90;;;3.50;;
57343;SDS011;43180;50.974;18.172;2023-08-21T08:27:23;8.40;;;4.40;;
57343;SDS011;43180;50.974;18.172;2023-08-21T08:37:05;5.70;;;4.10;;
57343;SDS011;43180;50.974;18.172;2023-08-21T08:46:54;5.70;;;4.30;;
57343;SDS011;43180;50.974;18.172;2023-08-21T08:56:39;7.30;;;4.50;;
57343;SDS011;43180;50.974;18.172;2023-08-21T09:06:25;3.10;;;2.80;;
57343;SDS011;43180;50.974;18.172;2023-08-21T09:23:38;9.10;;;5.40;;
57343;SDS011;43180;50.974;18.172;2023-08-21T09:33:21;4.00;;;3.00;;
57343;SDS011;43180;50.974;18.172;2023-08-21T09:43:08;6.90;;;4.70;;
57343;SDS011;43180;50.974;18.172;2023-08-21T09:52:54;7.90;;;4.50;;
57343;SDS011;43180;50.974;18.172;2023-08-21T10:02:46;6.00;;;4.70;;
57343;SDS011;43180;50.974;18.172;2023-08-21T10:12:40;5.20;;;3.60;;
57343;SDS011;43180;50.974;18.172;2023-08-21T10:22:48;5.30;;;2.90;;
57343;SDS011;43180;50.974;18.172;2023-08-21T10:32:44;3.00;;;2.70;;
57343;SDS011;43180;50.974;18.172;2023-08-21T10:42:52;6.80;;;3.90;;
57343;SDS011;43180;50.974;18.172;2023-08-21T10:52:38;3.50;;;3.10;;
57343;SDS011;43180;50.974;18.172;2023-08-21T11:02:29;8.30;;;3.80;;
57343;SDS011;43180;50.974;18.172;2023-08-21T11:12:16;4.30;;;3.20;;
57343;SDS011;43180;50.974;18.172;2023-08-21T11:22:00;6.20;;;3.50;;
57343;SDS011;43180;50.974;18.172;2023-08-21T11:32:19;2.40;;;1.80;;
57343;SDS011;43180;50.974;18.172;2023-08-21T11:42:08;1.70;;;1.20;;
57343;SDS011;43180;50.974;18.172;2023-08-21T11:52:17;2.90;;;2.50;;
57343;SDS011;43180;50.974;18.172;2023-08-21T12:02:14;3.00;;;2.70;;
57343;SDS011;43180;50.974;18.172;2023-08-21T12:11:59;3.00;;;2.60;;
57343;SDS011;43180;50.974;18.172;2023-08-21T12:21:42;2.80;;;2.50;;
57343;SDS011;43180;50.974;18.172;2023-08-21T12:31:25;3.40;;;2.70;;
57343;SDS011;43180;50.974;18.172;2023-08-21T12:41:07;6.30;;;2.10;;
57343;SDS011;43180;50.974;18.172;2023-08-21T12:50:50;3.10;;;2.80;;
57343;SDS011;43180;50.974;18.172;2023-08-21T13:00:35;3.00;;;2.60;;
57343;SDS011;43180;50.974;18.172;2023-08-21T13:10:17;4.70;;;3.20;;
57343;SDS011;43180;50.974;18.172;2023-08-21T13:20:01;4.20;;;2.60;;
57343;SDS011;43180;50.974;18.172;2023-08-21T13:29:45;5.40;;;3.20;;
57343;SDS011;43180;50.974;18.172;2023-08-21T13:39:29;6.00;;;3.00;;
57343;SDS011;43180;50.974;18.172;2023-08-21T13:49:12;5.00;;;2.70;;
57343;SDS011;43180;50.974;18.172;2023-08-21T13:58:55;6.10;;;2.90;;
57343;SDS011;43180;50.974;18.172;2023-08-21T14:08:37;3.70;;;3.30;;
57343;SDS011;43180;50.974;18.172;2023-08-21T14:18:20;2.70;;;2.50;;
57343;SDS011;43180;50.974;18.172;2023-08-21T14:28:03;8.30;;;2.30;;
57343;SDS011;43180;50.974;18.172;2023-08-21T14:37:46;2.20;;;2.00;;
57343;SDS011;43180;50.974;18.172;2023-08-21T14:47:29;2.60;;;2.40;;
57343;SDS011;43180;50.974;18.172;2023-08-21T14:57:21;2.00;;;1.90;;
57343;SDS011;43180;50.974;18.172;2023-08-21T15:07:03;5.70;;;2.90;;
57343;SDS011;43180;50.974;18.172;2023-08-21T15:16:45;2.40;;;2.00;;
57343;SDS011;43180;50.974;18.172;2023-08-21T15:26:27;2.60;;;1.60;;
57343;SDS011;43180;50.974;18.172;2023-08-21T15:36:09;1.40;;;1.20;;
57343;SDS011;43180;50.974;18.172;2023-08-21T15:45:51;1.60;;;1.50;;
57343;SDS011;43180;50.974;18.172;2023-08-21T15:55:34;1.80;;;1.70;;
57343;SDS011;43180;50.974;18.172;2023-08-21T16:05:18;1.20;;;1.10;;
57343;SDS011;43180;50.974;18.172;2023-08-21T16:15:04;1.20;;;1.20;;
57343;SDS011;43180;50.974;18.172;2023-08-21T16:24:47;2.80;;;2.30;;
57343;SDS011;43180;50.974;18.172;2023-08-21T16:34:30;9.20;;;2.20;;
57343;SDS011;43180;50.974;18.172;2023-08-21T16:44:13;2.10;;;2.00;;
57343;SDS011;43180;50.974;18.172;2023-08-21T16:53:58;2.60;;;2.40;;
57343;SDS011;43180;50.974;18.172;2023-08-21T17:03:42;6.00;;;3.30;;
57343;SDS011;43180;50.974;18.172;2023-08-21T17:13:25;9.10;;;5.60;;
57343;SDS011;43180;50.974;18.172;2023-08-21T17:23:09;7.90;;;3.40;;
57343;SDS011;43180;50.974;18.172;2023-08-21T17:32:56;2.60;;;2.00;;
57343;SDS011;43180;50.974;18.172;2023-08-21T17:42:38;3.50;;;3.20;;
57343;SDS011;43180;50.974;18.172;2023-08-21T17:59:38;8.10;;;3.50;;
57343;SDS011;43180;50.974;18.172;2023-08-21T18:09:21;3.70;;;2.90;;
57343;SDS011;43180;50.974;18.172;2023-08-21T18:19:07;8.70;;;5.60;;
57343;SDS011;43180;50.974;18.172;2023-08-21T18:28:50;4.70;;;3.20;;
57343;SDS011;43180;50.974;18.172;2023-08-21T18:38:32;7.50;;;4.30;;
57343;SDS011;43180;50.974;18.172;2023-08-21T18:48:17;9.90;;;4.20;;
57343;SDS011;43180;50.974;18.172;2023-08-21T18:58:02;6.10;;;3.90;;
57343;SDS011;43180;50.974;18.172;2023-08-21T19:07:46;9.10;;;5.60;;
57343;SDS011;43180;50.974;18.172;2023-08-21T19:17:29;10.10;;;3.90;;
57343;SDS011;43180;50.974;18.172;2023-08-21T19:27:15;15.60;;;4.90;;
57343;SDS011;43180;50.974;18.172;2023-08-21T19:37:01;14.00;;;5.10;;
57343;SDS011;43180;50.974;18.172;2023-08-21T19:46:47;9.10;;;6.10;;
57343;SDS011;43180;50.974;18.172;2023-08-21T19:56:34;10.90;;;7.20;;
57343;SDS011;43180;50.974;18.172;2023-08-21T20:06:17;18.00;;;7.30;;
57343;SDS011;43180;50.974;18.172;2023-08-21T20:16:01;12.10;;;6.10;;
57343;SDS011;43180;50.974;18.172;2023-08-21T20:25:48;10.50;;;7.30;;
57343;SDS011;43180;50.974;18.172;2023-08-21T20:35:31;7.50;;;6.00;;
57343;SDS011;43180;50.974;18.172;2023-08-21T20:45:13;14.20;;;6.50;;
57343;SDS011;43180;50.974;18.172;2023-08-21T20:54:57;25.10;;;10.80;;
57343;SDS011;43180;50.974;18.172;2023-08-21T21:04:40;12.30;;;7.30;;
57343;SDS011;43180;50.974;18.172;2023-08-21T21:14:26;7.50;;;4.60;;
57343;SDS011;43180;50.974;18.172;2023-08-21T21:24:09;12.70;;;6.80;;
57343;SDS011;43180;50.974;18.172;2023-08-21T21:41:16;8.50;;;5.30;;
57343;SDS011;43180;50.974;18.172;2023-08-21T21:51:01;9.80;;;5.90;;
57343;SDS011;43180;50.974;18.172;2023-08-21T22:00:46;11.30;;;7.00;;
57343;SDS011;43180;50.974;18.172;2023-08-21T22:10:29;0.60;;;0.60;;
57343;SDS011;43180;50.974;18.172;2023-08-21T22:20:15;10.80;;;8.30;;
57343;SDS011;43180;50.974;18.172;2023-08-21T22:29:58;3.10;;;2.80;;
57343;SDS011;43180;50.974;18.172;2023-08-21T22:39:43;16.20;;;9.20;;
57343;SDS011;43180;50.974;18.172;2023-08-21T22:49:26;9.90;;;7.60;;
57343;SDS011;43180;50.974;18.172;2023-08-21T22:59:09;19.10;;;11.90;;
57343;SDS011;43180;50.974;18.172;2023-08-21T23:08:52;14.50;;;9.80;;
57343;SDS011;43180;50.974;18.172;2023-08-21T23:18:35;11.00;;;6.40;;
57343;SDS011;43180;50.974;18.172;2023-08-21T23:28:23;10.00;;;6.60;;
57343;SDS011;43180;50.974;18.172;2023-08-21T23:38:07;5.60;;;3.30;;
57343;SDS011;43180;50.974;18.172;2023-08-21T23:47:53;14.50;;;8.10;;
57343;SDS011;43180;50.974;18.172;2023-08-21T23:57:36;12.40;;;5.70;;
